createdAt,value
2023-05-11T00:01:28.495Z,20.70
2023-05-11T00:03:57.122Z,20.70
2023-05-11T00:06:25.213Z,20.70
2023-05-11T00:08:53.064Z,20.70
2023-05-11T00:11:22.228Z,20.70
2023-05-11T00:13:50.097Z,20.70
2023-05-11T00:16:18.008Z,20.70
2023-05-11T00:18:46.078Z,20.70
2023-05-11T00:21:13.926Z,20.70
2023-05-11T00:23:41.778Z,20.70
2023-05-11T00:26:09.602Z,20.70
2023-05-11T00:28:38.811Z,20.70
2023-05-11T00:31:06.762Z,20.70
2023-05-11T00:33:34.695Z,20.70
2023-05-11T00:36:03.884Z,20.70
2023-05-11T00:38:32.257Z,20.70
2023-05-11T00:41:00.307Z,20.70
2023-05-11T00:43:28.175Z,20.70
2023-05-11T00:45:57.503Z,20.70
2023-05-11T00:48:25.416Z,20.70
2023-05-11T00:50:53.494Z,20.70
2023-05-11T00:53:21.568Z,20.70
2023-05-11T00:55:49.424Z,20.70
2023-05-11T00:58:17.607Z,20.70
2023-05-11T01:00:47.408Z,20.70
2023-05-11T01:03:17.484Z,20.70
2023-05-11T01:05:50.746Z,20.70
2023-05-11T01:08:23.102Z,20.70
2023-05-11T01:10:59.740Z,20.70
2023-05-11T01:13:32.788Z,20.70
2023-05-11T01:16:06.591Z,20.70
2023-05-11T01:18:41.415Z,20.70
2023-05-11T01:21:10.940Z,20.70
2023-05-11T01:23:51.236Z,20.70
2023-05-11T01:26:40.285Z,20.60
2023-05-11T01:29:40.788Z,20.60
2023-05-11T01:32:18.084Z,20.60
2023-05-11T01:34:47.089Z,20.60
2023-05-11T01:37:19.460Z,20.60
2023-05-11T01:39:52.944Z,20.60
2023-05-11T01:42:25.188Z,20.60
2023-05-11T01:44:55.304Z,20.60
2023-05-11T01:47:26.258Z,20.70
2023-05-11T01:49:56.902Z,20.60
2023-05-11T01:52:27.095Z,20.60
2023-05-11T01:54:57.157Z,20.70
2023-05-11T01:57:25.513Z,20.60
2023-05-11T01:59:54.749Z,20.60
2023-05-11T02:02:25.525Z,20.60
2023-05-11T02:04:55.289Z,20.60
2023-05-11T02:07:25.084Z,20.60
2023-05-11T02:09:54.463Z,20.60
2023-05-11T02:12:25.043Z,20.60
2023-05-11T02:14:53.534Z,20.60
2023-05-11T02:17:25.294Z,20.60
2023-05-11T02:19:54.485Z,20.60
2023-05-11T02:22:25.613Z,20.60
2023-05-11T02:24:53.597Z,20.60
2023-05-11T02:27:21.693Z,20.60
2023-05-11T02:29:49.630Z,20.60
2023-05-11T02:32:20.967Z,20.60
2023-05-11T02:34:58.983Z,20.60
2023-05-11T02:37:28.830Z,20.60
2023-05-11T02:39:59.529Z,20.60
2023-05-11T02:42:30.986Z,20.60
2023-05-11T02:45:02.223Z,20.60
2023-05-11T02:47:34.268Z,20.60
2023-05-11T02:50:05.825Z,20.60
2023-05-11T02:52:35.748Z,20.60
2023-05-11T02:55:04.932Z,20.60
2023-05-11T02:57:32.960Z,20.60
2023-05-11T03:00:02.605Z,20.60
2023-05-11T03:02:30.646Z,20.60
2023-05-11T03:04:58.686Z,20.60
2023-05-11T03:07:28.102Z,20.60
2023-05-11T03:09:56.173Z,20.60
2023-05-11T03:12:24.989Z,20.60
2023-05-11T03:14:53.410Z,20.60
2023-05-11T03:17:21.939Z,20.60
2023-05-11T03:19:50.736Z,20.60
2023-05-11T03:22:19.296Z,20.60
2023-05-11T03:24:48.899Z,20.50
2023-05-11T03:27:17.291Z,20.50
2023-05-11T03:29:46.546Z,20.50
2023-05-11T03:32:15.332Z,20.50
2023-05-11T03:34:43.339Z,20.50
2023-05-11T03:37:13.555Z,20.50
2023-05-11T03:39:44.837Z,20.50
2023-05-11T03:42:15.511Z,20.50
2023-05-11T03:44:47.146Z,20.50
2023-05-11T03:47:16.865Z,20.50
2023-05-11T03:49:46.196Z,20.50
2023-05-11T03:52:14.715Z,20.50
2023-05-11T03:54:43.666Z,20.50
2023-05-11T03:57:11.596Z,20.50
2023-05-11T03:59:42.068Z,20.50
2023-05-11T04:02:10.028Z,20.50
2023-05-11T04:04:38.029Z,20.50
2023-05-11T04:07:05.898Z,20.50
2023-05-11T04:09:33.747Z,20.50
2023-05-11T04:12:01.591Z,20.50
2023-05-11T04:14:29.456Z,20.50
2023-05-11T04:16:58.761Z,20.50
2023-05-11T04:19:26.569Z,20.50
2023-05-11T04:21:54.546Z,20.50
2023-05-11T04:24:22.400Z,20.50
2023-05-11T04:26:50.325Z,20.50
2023-05-11T04:29:18.169Z,20.50
2023-05-11T04:31:46.092Z,20.50
2023-05-11T04:34:15.291Z,20.50
2023-05-11T04:36:43.171Z,20.50
2023-05-11T04:39:11.033Z,20.50
2023-05-11T04:41:38.902Z,20.50
2023-05-11T04:44:07.066Z,20.50
2023-05-11T04:46:34.958Z,20.50
2023-05-11T04:49:02.811Z,20.50
2023-05-11T04:51:32.053Z,20.50
2023-05-11T04:53:59.948Z,20.50
2023-05-11T04:56:27.820Z,20.50
2023-05-11T04:58:55.904Z,20.50
2023-05-11T05:01:23.768Z,20.50
2023-05-11T05:03:52.018Z,20.50
2023-05-11T05:06:19.944Z,20.50
2023-05-11T05:08:49.146Z,20.50
2023-05-11T05:11:17.845Z,20.50
2023-05-11T05:13:45.768Z,20.50
2023-05-11T05:16:13.743Z,20.50
2023-05-11T05:18:41.622Z,20.50
2023-05-11T05:21:09.500Z,20.50
2023-05-11T05:23:37.348Z,20.50
2023-05-11T05:26:06.561Z,20.50
2023-05-11T05:28:35.867Z,20.50
2023-05-11T05:31:03.848Z,20.50
2023-05-11T05:33:31.751Z,20.40
2023-05-11T05:35:59.706Z,20.50
2023-05-11T05:38:27.546Z,20.40
2023-05-11T05:40:55.502Z,20.40
2023-05-11T05:43:24.740Z,20.40
2023-05-11T05:45:52.608Z,20.40
2023-05-11T05:48:20.504Z,20.40
2023-05-11T05:50:48.420Z,20.40
2023-05-11T05:53:16.366Z,20.40
2023-05-11T05:55:44.233Z,20.40
2023-05-11T05:58:12.465Z,20.40
2023-05-11T06:00:41.655Z,20.40
2023-05-11T06:03:09.609Z,20.40
2023-05-11T06:05:37.562Z,20.40
2023-05-11T06:08:10.480Z,20.40
2023-05-11T06:10:38.936Z,20.40
2023-05-11T06:13:08.342Z,20.40
2023-05-11T06:15:36.246Z,20.40
2023-05-11T06:18:06.637Z,20.40
2023-05-11T06:20:34.592Z,20.40
2023-05-11T06:23:02.494Z,20.40
2023-05-11T06:25:30.475Z,20.40
2023-05-11T06:27:58.292Z,20.40
2023-05-11T06:30:26.153Z,20.40
2023-05-11T06:32:54.167Z,20.40
2023-05-11T06:35:23.491Z,20.40
2023-05-11T06:37:51.735Z,20.40
2023-05-11T06:40:20.014Z,20.40
2023-05-11T06:42:48.161Z,20.40
2023-05-11T06:45:16.480Z,20.40
2023-05-11T06:47:44.408Z,20.40
2023-05-11T06:50:12.280Z,20.40
2023-05-11T06:52:41.458Z,20.40
2023-05-11T06:55:13.190Z,20.40
2023-05-11T06:57:41.315Z,20.40
2023-05-11T07:00:10.306Z,20.40
2023-05-11T07:02:38.273Z,20.40
2023-05-11T07:05:06.761Z,20.40
2023-05-11T07:07:34.668Z,20.40
2023-05-11T07:10:03.960Z,20.40
2023-05-11T07:12:32.004Z,20.40
2023-05-11T07:14:59.989Z,20.40
2023-05-11T07:17:28.565Z,20.40
2023-05-11T07:19:56.449Z,20.40
2023-05-11T07:22:24.314Z,20.40
2023-05-11T07:24:52.162Z,20.30
2023-05-11T07:27:21.512Z,20.40
2023-05-11T07:29:49.354Z,20.30
2023-05-11T07:32:17.182Z,20.30
2023-05-11T07:34:45.775Z,20.30
2023-05-11T07:37:13.672Z,20.30
2023-05-11T07:39:41.509Z,20.30
2023-05-11T07:42:09.400Z,20.30
2023-05-11T07:44:38.595Z,20.30
2023-05-11T07:47:06.654Z,20.30
2023-05-11T07:49:42.819Z,20.30
2023-05-11T07:52:11.642Z,20.30
2023-05-11T07:54:40.287Z,20.30
2023-05-11T07:57:08.449Z,20.30
2023-05-11T07:59:37.914Z,20.30
2023-05-11T08:02:07.570Z,20.30
2023-05-11T08:04:36.214Z,20.30
2023-05-11T08:07:04.308Z,20.30
2023-05-11T08:09:32.299Z,20.30
2023-05-11T08:12:01.615Z,20.30
2023-05-11T08:14:29.533Z,20.30
2023-05-11T08:16:58.746Z,20.30
2023-05-11T08:19:26.750Z,20.30
2023-05-11T08:21:54.635Z,20.30
2023-05-11T08:24:22.512Z,20.30
2023-05-11T08:26:50.371Z,20.30
2023-05-11T08:29:18.271Z,20.30
2023-05-11T08:31:46.213Z,20.30
2023-05-11T08:34:19.605Z,20.30
2023-05-11T08:36:48.348Z,20.30
2023-05-11T08:39:28.369Z,20.30
2023-05-11T08:42:06.219Z,20.30
2023-05-11T08:44:37.611Z,20.30
2023-05-11T08:47:21.892Z,20.30
2023-05-11T08:49:53.870Z,20.30
2023-05-11T08:52:22.051Z,20.30
2023-05-11T08:54:49.942Z,20.30
2023-05-11T08:57:18.472Z,20.30
2023-05-11T08:59:47.069Z,20.30
2023-05-11T09:02:18.148Z,20.30
2023-05-11T09:04:48.993Z,20.30
2023-05-11T09:07:19.338Z,20.30
2023-05-11T09:09:47.776Z,20.30
2023-05-11T09:12:16.363Z,20.30
2023-05-11T09:14:44.764Z,20.30
2023-05-11T09:17:12.772Z,20.30
2023-05-11T09:19:59.226Z,20.20
2023-05-11T09:22:31.460Z,20.20
2023-05-11T09:25:01.705Z,20.30
2023-05-11T09:27:29.603Z,20.30
2023-05-11T09:29:57.476Z,20.20
2023-05-11T09:32:25.510Z,20.20
2023-05-11T09:34:53.433Z,20.20
2023-05-11T09:37:21.492Z,20.20
2023-05-11T09:40:14.192Z,20.20
2023-05-11T09:42:44.059Z,20.20
2023-05-11T09:45:12.173Z,20.20
2023-05-11T09:47:41.093Z,20.20
2023-05-11T09:50:18.629Z,20.20
2023-05-11T09:52:53.669Z,20.20
2023-05-11T09:55:22.937Z,20.20
2023-05-11T09:57:55.407Z,20.20
2023-05-11T10:00:25.120Z,20.20
2023-05-11T10:03:03.667Z,20.20
2023-05-11T10:05:33.341Z,20.20
2023-05-11T10:08:02.294Z,20.20
2023-05-11T10:10:33.529Z,20.20
2023-05-11T10:13:03.436Z,20.20
2023-05-11T10:15:36.607Z,20.20
2023-05-11T10:18:04.778Z,20.20
2023-05-11T10:20:33.838Z,20.20
2023-05-11T10:23:02.295Z,20.20
2023-05-11T10:25:31.535Z,20.20
2023-05-11T10:28:00.550Z,20.20
2023-05-11T10:30:28.748Z,20.20
2023-05-11T10:32:57.475Z,20.20
2023-05-11T10:35:25.690Z,20.20
2023-05-11T10:37:53.756Z,20.20
2023-05-11T10:40:21.904Z,20.20
2023-05-11T10:43:20.702Z,20.20
2023-05-11T10:45:57.675Z,20.20
2023-05-11T10:48:50.777Z,20.20
2023-05-11T10:51:34.347Z,20.20
2023-05-11T10:54:14.792Z,20.20
2023-05-11T10:56:55.780Z,20.20
2023-05-11T10:59:48.827Z,20.20
2023-05-11T11:02:18.612Z,20.20
2023-05-11T11:04:49.135Z,20.20
2023-05-11T11:07:18.520Z,20.20
2023-05-11T11:09:56.161Z,20.20
2023-05-11T11:12:24.553Z,20.20
2023-05-11T11:14:58.613Z,20.20
2023-05-11T11:17:31.507Z,20.20
2023-05-11T11:20:01.043Z,20.20
2023-05-11T11:22:46.957Z,20.20
2023-05-11T11:25:17.152Z,20.20
2023-05-11T11:28:00.728Z,20.20
2023-05-11T11:30:30.881Z,20.20
2023-05-11T11:33:32.762Z,20.20
2023-05-11T11:36:00.666Z,20.20
2023-05-11T11:38:29.570Z,20.20
2023-05-11T11:40:57.829Z,20.20
2023-05-11T11:43:29.311Z,20.20
2023-05-11T11:46:00.640Z,20.20
2023-05-11T11:48:33.445Z,20.20
2023-05-11T11:51:06.604Z,20.20
2023-05-11T11:54:05.524Z,20.20
2023-05-11T11:56:44.810Z,20.20
2023-05-11T11:59:16.319Z,20.20
2023-05-11T12:01:46.932Z,20.20
2023-05-11T12:04:36.664Z,20.20
2023-05-11T12:07:06.673Z,20.20
2023-05-11T12:09:36.796Z,20.20
2023-05-11T12:12:06.456Z,20.20
2023-05-11T12:14:35.606Z,20.20
2023-05-11T12:17:13.437Z,20.20
2023-05-11T12:19:43.353Z,20.20
2023-05-11T12:22:14.249Z,20.20
2023-05-11T12:24:44.085Z,20.20
2023-05-11T12:27:12.026Z,20.20
2023-05-11T12:29:41.349Z,20.20
2023-05-11T12:32:14.517Z,20.20
2023-05-11T12:34:42.462Z,20.20
2023-05-11T12:37:10.498Z,20.20
2023-05-11T12:39:39.559Z,20.20
2023-05-11T12:42:07.637Z,20.20
2023-05-11T12:44:35.589Z,20.20
2023-05-11T12:47:03.663Z,20.20
2023-05-11T12:49:33.525Z,20.20
2023-05-11T12:52:09.365Z,20.20
2023-05-11T12:54:39.063Z,20.20
2023-05-11T12:57:08.675Z,20.20
2023-05-11T12:59:38.449Z,20.10
2023-05-11T13:02:11.477Z,20.20
2023-05-11T13:04:42.450Z,20.10
2023-05-11T13:07:10.879Z,20.20
2023-05-11T13:09:39.211Z,20.10
2023-05-11T13:12:17.247Z,20.20
2023-05-11T13:14:46.854Z,20.10
2023-05-11T13:17:16.154Z,20.20
2023-05-11T13:19:45.894Z,20.10
2023-05-11T13:22:13.784Z,20.20
2023-05-11T13:24:41.689Z,20.10
2023-05-11T13:27:09.527Z,20.10
2023-05-11T13:29:40.124Z,20.10
2023-05-11T13:32:08.794Z,20.10
2023-05-11T13:34:37.276Z,20.10
2023-05-11T13:37:06.556Z,20.10
2023-05-11T13:39:34.403Z,20.10
2023-05-11T13:42:02.233Z,20.10
2023-05-11T13:44:30.129Z,20.10
2023-05-11T13:46:58.031Z,20.10
2023-05-11T13:49:25.917Z,20.10
2023-05-11T13:51:55.394Z,20.10
2023-05-11T13:54:24.847Z,20.10
2023-05-11T13:56:52.730Z,20.10
2023-05-11T13:59:20.819Z,20.10
2023-05-11T14:01:48.780Z,20.10
2023-05-11T14:04:16.738Z,20.10
2023-05-11T14:06:44.913Z,20.10
2023-05-11T14:09:12.994Z,20.10
2023-05-11T14:11:42.210Z,20.10
2023-05-11T14:14:10.088Z,20.10
2023-05-11T14:16:38.167Z,20.10
2023-05-11T14:19:06.195Z,20.10
2023-05-11T14:21:34.140Z,20.10
2023-05-11T14:24:11.505Z,20.10
2023-05-11T14:26:42.126Z,20.10
2023-05-11T14:29:10.047Z,20.10
2023-05-11T14:31:38.496Z,20.10
2023-05-11T14:34:06.787Z,20.10
2023-05-11T14:36:34.780Z,20.10
2023-05-11T14:39:02.798Z,20.10
2023-05-11T14:41:31.002Z,20.10
2023-05-11T14:44:00.360Z,20.10
2023-05-11T14:46:28.619Z,20.10
2023-05-11T14:48:56.573Z,20.10
2023-05-11T14:51:24.440Z,20.10
2023-05-11T14:53:52.406Z,20.10
2023-05-11T14:56:20.476Z,20.10
2023-05-11T14:58:48.438Z,20.10
2023-05-11T15:01:17.677Z,20.10
2023-05-11T15:03:45.648Z,20.10
2023-05-11T15:06:20.950Z,20.10
2023-05-11T15:08:49.070Z,20.10
2023-05-11T15:11:17.108Z,20.10
2023-05-11T15:13:47.287Z,20.10
2023-05-11T15:16:15.535Z,20.10
2023-05-11T15:18:44.822Z,20.10
2023-05-11T15:21:12.793Z,20.10
2023-05-11T15:23:40.744Z,20.10
2023-05-11T15:26:08.632Z,20.10
2023-05-11T15:28:36.500Z,20.10
2023-05-11T15:31:04.411Z,20.10
2023-05-11T15:33:32.824Z,20.10
2023-05-11T15:36:02.064Z,20.10
2023-05-11T15:38:30.959Z,20.10
2023-05-11T15:40:58.869Z,20.10
2023-05-11T15:43:26.930Z,20.10
2023-05-11T15:45:55.260Z,20.10
2023-05-11T15:48:23.142Z,20.10
2023-05-11T15:50:51.046Z,20.10
2023-05-11T15:53:20.237Z,20.10
2023-05-11T15:55:50.919Z,20.10
2023-05-11T15:58:18.831Z,20.10
2023-05-11T16:00:46.679Z,20.10
2023-05-11T16:03:14.925Z,20.10
2023-05-11T16:05:42.805Z,20.10
2023-05-11T16:08:10.649Z,20.10
2023-05-11T16:10:40.114Z,20.10
2023-05-11T16:13:08.619Z,20.10
2023-05-11T16:15:36.708Z,20.10
2023-05-11T16:18:05.475Z,20.10
2023-05-11T16:20:33.763Z,20.10
2023-05-11T16:23:01.730Z,20.10
2023-05-11T16:25:30.075Z,20.10
2023-05-11T16:27:59.265Z,20.10
2023-05-11T16:30:27.191Z,20.10
2023-05-11T16:32:55.369Z,20.10
2023-05-11T16:35:23.213Z,20.10
2023-05-11T16:37:51.213Z,20.10
2023-05-11T16:40:21.144Z,20.10
2023-05-11T16:42:49.426Z,20.10
2023-05-11T16:45:18.749Z,20.10
2023-05-11T16:47:46.766Z,20.10
2023-05-11T16:50:16.054Z,20.10
2023-05-11T16:52:44.192Z,20.10
2023-05-11T16:55:12.121Z,20.10
2023-05-11T16:57:39.988Z,20.10
2023-05-11T17:00:09.875Z,20.10
2023-05-11T17:02:39.186Z,20.10
2023-05-11T17:05:08.095Z,20.10
2023-05-11T17:07:36.016Z,20.10
2023-05-11T17:10:04.484Z,20.10
2023-05-11T17:12:35.517Z,20.10
2023-05-11T17:15:03.631Z,20.10
2023-05-11T17:17:31.860Z,20.10
2023-05-11T17:20:01.274Z,20.10
2023-05-11T17:22:29.675Z,20.10
2023-05-11T17:24:57.613Z,20.10
2023-05-11T17:27:25.534Z,20.10
2023-05-11T17:29:53.403Z,20.10
2023-05-11T17:32:21.459Z,20.10
2023-05-11T17:34:49.570Z,20.10
2023-05-11T17:37:30.538Z,20.10
2023-05-11T17:39:59.465Z,20.10
2023-05-11T17:42:28.250Z,20.10
2023-05-11T17:44:56.235Z,20.10
2023-05-11T17:47:24.149Z,20.10
2023-05-11T17:49:52.265Z,20.10
2023-05-11T17:52:21.532Z,20.10
2023-05-11T17:54:49.377Z,20.10
2023-05-11T17:57:17.232Z,20.10
2023-05-11T17:59:46.638Z,20.10
2023-05-11T18:02:14.676Z,20.10
2023-05-11T18:04:42.682Z,20.10
2023-05-11T18:07:10.705Z,20.10
2023-05-11T18:09:39.897Z,20.10
2023-05-11T18:12:09.160Z,20.10
2023-05-11T18:14:37.220Z,20.10
2023-05-11T18:17:05.661Z,20.10
2023-05-11T18:19:33.906Z,20.10
2023-05-11T18:22:01.805Z,20.10
2023-05-11T18:24:29.698Z,20.10
2023-05-11T18:26:59.001Z,20.10
2023-05-11T18:29:27.024Z,20.10
2023-05-11T18:31:55.172Z,20.10
2023-05-11T18:34:23.100Z,20.10
2023-05-11T18:36:50.965Z,20.10
2023-05-11T18:39:19.290Z,20.10
2023-05-11T18:41:47.184Z,20.10
2023-05-11T18:44:18.337Z,20.00
2023-05-11T18:46:46.344Z,20.10
2023-05-11T18:49:14.237Z,20.00
2023-05-11T18:51:42.085Z,20.10
2023-05-11T18:54:10.098Z,20.10
2023-05-11T18:56:37.991Z,20.10
2023-05-11T18:59:05.939Z,20.10
2023-05-11T19:01:46.980Z,20.00
2023-05-11T19:04:19.366Z,20.00
2023-05-11T19:06:47.254Z,20.00
2023-05-11T19:09:15.082Z,20.00
2023-05-11T19:11:43.118Z,20.10
2023-05-11T19:14:14.289Z,20.10
2023-05-11T19:16:43.559Z,20.10
2023-05-11T19:19:12.710Z,20.00
2023-05-11T19:21:42.455Z,20.00
2023-05-11T19:24:11.215Z,20.00
2023-05-11T19:26:39.619Z,20.00
2023-05-11T19:29:09.109Z,20.00
2023-05-11T19:31:37.208Z,20.00
2023-05-11T19:34:07.050Z,20.00
2023-05-11T19:36:35.005Z,20.00
2023-05-11T19:39:04.252Z,20.00
2023-05-11T19:41:33.183Z,20.00
2023-05-11T19:44:01.385Z,20.00
2023-05-11T19:46:29.447Z,20.00
2023-05-11T19:48:57.634Z,20.00
2023-05-11T19:51:26.909Z,20.00
2023-05-11T19:53:54.843Z,20.00
2023-05-11T19:56:22.677Z,20.00
2023-05-11T19:58:50.638Z,20.00
2023-05-11T20:01:18.580Z,20.00
2023-05-11T20:03:46.620Z,20.00
2023-05-11T20:06:14.605Z,20.00
2023-05-11T20:08:44.453Z,20.00
2023-05-11T20:11:13.996Z,20.00
2023-05-11T20:13:42.380Z,20.00
2023-05-11T20:16:10.693Z,20.00
2023-05-11T20:18:38.870Z,20.00
2023-05-11T20:21:06.985Z,20.00
2023-05-11T20:23:37.264Z,20.00
2023-05-11T20:26:06.970Z,20.00
2023-05-11T20:28:34.897Z,20.00
2023-05-11T20:31:02.984Z,20.00
2023-05-11T20:36:02.059Z,20.00
2023-05-11T20:38:30.030Z,20.00
2023-05-11T20:40:58.689Z,20.00
2023-05-11T20:43:27.990Z,20.00
2023-05-11T20:45:56.089Z,20.00
2023-05-11T20:48:38.598Z,20.00
2023-05-11T20:51:08.325Z,20.00
2023-05-11T20:53:36.228Z,20.00
2023-05-11T20:56:04.406Z,20.00
2023-05-11T20:58:33.643Z,20.00
2023-05-11T21:01:01.638Z,20.00
2023-05-11T21:03:29.527Z,20.00
2023-05-11T21:05:57.613Z,20.00
2023-05-11T21:08:25.714Z,20.00
2023-05-11T21:10:53.549Z,20.00
2023-05-11T21:13:21.403Z,20.00
2023-05-11T21:15:50.628Z,20.00
2023-05-11T21:18:18.797Z,20.00
2023-05-11T21:20:46.789Z,20.00
2023-05-11T21:23:15.198Z,20.00
2023-05-11T21:25:43.069Z,20.00
2023-05-11T21:28:10.969Z,20.00
2023-05-11T21:30:38.844Z,20.00
2023-05-11T21:33:08.167Z,20.00
2023-05-11T21:35:36.167Z,20.00
2023-05-11T21:38:04.216Z,20.00
2023-05-11T21:40:32.286Z,20.00
2023-05-11T21:43:00.159Z,20.00
2023-05-11T21:45:28.109Z,20.00
2023-05-11T21:47:56.157Z,20.00
2023-05-11T21:50:25.539Z,20.00
2023-05-11T21:52:56.743Z,20.00
2023-05-11T21:55:24.944Z,20.00
2023-05-11T21:57:53.410Z,20.00
2023-05-11T22:00:22.762Z,20.00
2023-05-11T22:02:51.557Z,20.00
2023-05-11T22:05:19.873Z,20.00
2023-05-11T22:07:49.045Z,20.00
2023-05-11T22:10:17.508Z,20.00
2023-05-11T22:12:45.650Z,20.00
2023-05-11T22:15:13.521Z,20.00
2023-05-11T22:17:41.455Z,20.00
2023-05-11T22:20:10.980Z,20.00
2023-05-11T22:22:38.871Z,20.00
2023-05-11T22:25:09.414Z,20.00
2023-05-11T22:27:37.279Z,20.00
2023-05-11T22:30:05.998Z,20.00
2023-05-11T22:32:33.872Z,20.00
2023-05-11T22:35:02.354Z,20.00
2023-05-11T22:37:31.688Z,20.00
2023-05-11T22:39:59.558Z,20.00
2023-05-11T22:42:30.645Z,20.00
2023-05-11T22:44:58.749Z,20.00
2023-05-11T22:47:26.986Z,20.00
2023-05-11T22:49:55.019Z,20.00
2023-05-11T22:52:22.841Z,20.00
2023-05-11T22:54:54.526Z,20.00
2023-05-11T22:57:23.995Z,20.00
2023-05-11T22:59:53.312Z,20.00
2023-05-11T23:02:21.376Z,20.00
2023-05-11T23:04:51.807Z,20.00
2023-05-11T23:07:19.931Z,20.00
2023-05-11T23:09:49.717Z,20.00
2023-05-11T23:12:18.287Z,20.00
2023-05-11T23:14:46.132Z,20.00
2023-05-11T23:17:15.626Z,20.00
2023-05-11T23:19:43.674Z,20.00
2023-05-11T23:22:11.555Z,20.00
2023-05-11T23:24:39.487Z,20.00
2023-05-11T23:27:07.474Z,20.00
2023-05-11T23:29:35.324Z,20.00
2023-05-11T23:32:03.632Z,19.90
2023-05-11T23:34:33.113Z,20.00
2023-05-11T23:37:01.367Z,20.00
2023-05-11T23:39:29.247Z,19.90
2023-05-11T23:41:57.100Z,20.00
2023-05-11T23:44:25.045Z,19.90
2023-05-11T23:46:52.945Z,19.90
2023-05-11T23:49:20.832Z,19.90
2023-05-11T23:51:50.089Z,20.00
2023-05-11T23:54:17.943Z,19.90
2023-05-11T23:56:46.690Z,19.90
2023-05-11T23:59:14.909Z,19.90
